createdAt,value
2019-05-29T00:02:26.750Z,61.70
2019-05-29T00:04:58.737Z,61.60
2019-05-29T00:07:27.968Z,61.80
2019-05-29T00:09:57.464Z,61.70
2019-05-29T00:12:26.754Z,62.00
2019-05-29T00:14:56.107Z,61.80
2019-05-29T00:17:25.433Z,62.90
2019-05-29T00:19:54.590Z,62.40
2019-05-29T00:22:23.857Z,62.40
2019-05-29T00:24:53.235Z,62.40
2019-05-29T00:27:22.593Z,62.60
2019-05-29T00:29:53.916Z,62.20
2019-05-29T00:32:22.907Z,62.90
2019-05-29T00:34:52.196Z,62.50
2019-05-29T00:37:21.437Z,62.60
2019-05-29T00:39:50.774Z,62.80
2019-05-29T00:42:20.004Z,62.70
2019-05-29T00:44:49.538Z,62.90
2019-05-29T00:47:19.002Z,62.80
2019-05-29T00:49:48.278Z,63.10
2019-05-29T00:52:18.374Z,62.70
2019-05-29T00:54:46.574Z,62.70
2019-05-29T00:57:16.958Z,62.10
2019-05-29T00:59:46.471Z,62.40
2019-05-29T01:02:15.957Z,62.20
2019-05-29T01:04:45.405Z,62.40
2019-05-29T01:07:14.761Z,62.00
2019-05-29T01:09:44.024Z,62.00
2019-05-29T01:12:13.357Z,62.40
2019-05-29T01:14:50.298Z,62.20
2019-05-29T01:17:13.760Z,62.50
2019-05-29T01:19:43.312Z,62.90
2019-05-29T01:22:13.802Z,62.50
2019-05-29T01:24:43.754Z,62.30
2019-05-29T01:27:13.019Z,62.50
2019-05-29T01:29:42.434Z,62.60
2019-05-29T01:32:11.813Z,62.70
2019-05-29T01:34:41.126Z,63.20
2019-05-29T01:37:10.557Z,63.40
2019-05-29T01:39:39.805Z,63.60
2019-05-29T01:42:09.122Z,63.90
2019-05-29T01:44:38.577Z,63.90
2019-05-29T01:47:07.922Z,64.20
2019-05-29T01:49:37.186Z,64.20
2019-05-29T01:52:06.500Z,64.40
2019-05-29T01:54:36.094Z,64.50
2019-05-29T01:57:05.361Z,64.40
2019-05-29T01:59:34.782Z,64.50
2019-05-29T02:02:04.215Z,64.70
2019-05-29T02:04:33.513Z,64.70
2019-05-29T02:07:02.900Z,64.90
2019-05-29T02:09:32.244Z,65.00
2019-05-29T02:12:01.591Z,65.50
2019-05-29T02:14:30.846Z,65.40
2019-05-29T02:17:00.249Z,65.70
2019-05-29T02:19:29.421Z,67.30
2019-05-29T02:21:58.620Z,66.80
2019-05-29T02:24:27.938Z,67.10
2019-05-29T02:26:57.301Z,67.80
2019-05-29T02:29:26.957Z,67.90
2019-05-29T02:31:56.388Z,68.10
2019-05-29T02:34:27.928Z,68.50
2019-05-29T02:36:56.781Z,68.70
2019-05-29T02:39:27.313Z,68.80
2019-05-29T02:41:57.272Z,69.20
2019-05-29T02:44:27.562Z,69.20
2019-05-29T02:46:59.711Z,69.40
2019-05-29T02:49:30.356Z,69.90
2019-05-29T02:51:59.722Z,70.00
2019-05-29T02:54:29.999Z,70.20
2019-05-29T02:56:59.870Z,70.20
2019-05-29T02:59:29.759Z,70.40
2019-05-29T03:02:00.178Z,70.50
2019-05-29T03:04:30.317Z,70.70
2019-05-29T03:07:00.997Z,70.70
2019-05-29T03:09:30.699Z,71.00
2019-05-29T03:12:00.626Z,70.90
2019-05-29T03:14:31.660Z,71.20
2019-05-29T03:17:01.383Z,71.20
2019-05-29T03:19:32.209Z,71.40
2019-05-29T03:22:03.179Z,71.80
2019-05-29T03:24:33.091Z,71.80
2019-05-29T03:27:03.418Z,72.00
2019-05-29T03:29:34.364Z,72.00
2019-05-29T03:32:03.784Z,72.10
2019-05-29T03:34:39.629Z,72.20
2019-05-29T03:37:03.985Z,72.20
2019-05-29T03:39:34.688Z,72.50
2019-05-29T03:42:06.970Z,72.40
2019-05-29T03:44:36.513Z,72.60
2019-05-29T03:47:05.916Z,72.70
2019-05-29T03:49:35.848Z,73.10
2019-05-29T03:52:06.261Z,73.00
2019-05-29T03:54:35.741Z,73.30
2019-05-29T03:57:05.018Z,73.50
2019-05-29T03:59:35.349Z,73.50
2019-05-29T04:02:05.184Z,73.60
2019-05-29T04:04:36.169Z,73.60
2019-05-29T04:07:05.424Z,74.00
2019-05-29T04:09:35.427Z,74.10
2019-05-29T04:12:03.782Z,74.10
2019-05-29T04:14:33.483Z,74.40
2019-05-29T04:17:03.958Z,74.10
2019-05-29T04:19:36.350Z,74.40
2019-05-29T04:22:10.144Z,75.20
2019-05-29T04:24:40.608Z,74.40
2019-05-29T04:27:12.469Z,74.60
2019-05-29T04:29:42.723Z,74.60
2019-05-29T04:32:10.933Z,74.30
2019-05-29T04:34:40.111Z,74.50
2019-05-29T04:37:09.386Z,74.60
2019-05-29T04:39:39.138Z,74.70
2019-05-29T04:42:08.403Z,74.50
2019-05-29T04:44:39.072Z,74.50
2019-05-29T04:47:11.636Z,74.40
2019-05-29T04:49:40.235Z,74.60
2019-05-29T04:52:09.519Z,74.30
2019-05-29T04:54:40.271Z,73.80
2019-05-29T04:57:09.526Z,73.60
2019-05-29T04:59:39.274Z,73.50
2019-05-29T05:02:08.475Z,73.20
2019-05-29T05:04:37.645Z,72.80
2019-05-29T05:07:06.936Z,72.90
2019-05-29T05:09:37.459Z,73.20
2019-05-29T05:12:06.813Z,72.80
2019-05-29T05:14:36.060Z,73.00
2019-05-29T05:17:05.344Z,72.50
2019-05-29T05:19:35.867Z,73.10
2019-05-29T05:22:05.238Z,72.90
2019-05-29T05:24:34.428Z,72.70
2019-05-29T05:27:03.660Z,72.70
2019-05-29T05:29:32.850Z,72.50
2019-05-29T05:32:02.080Z,72.50
2019-05-29T05:34:32.522Z,73.30
2019-05-29T05:37:01.787Z,72.40
2019-05-29T05:39:31.008Z,72.40
2019-05-29T05:41:59.971Z,72.40
2019-05-29T05:44:29.027Z,72.50
2019-05-29T05:46:58.292Z,72.50
2019-05-29T05:49:27.554Z,72.70
2019-05-29T05:51:56.767Z,72.50
2019-05-29T05:54:25.986Z,72.80
2019-05-29T05:56:55.076Z,73.10
2019-05-29T05:59:24.206Z,72.40
2019-05-29T06:01:53.371Z,71.90
2019-05-29T06:04:22.499Z,71.20
2019-05-29T06:06:51.602Z,71.80
2019-05-29T06:09:20.749Z,71.60
2019-05-29T06:11:49.905Z,70.90
2019-05-29T06:14:18.993Z,69.70
2019-05-29T06:16:49.356Z,68.30
2019-05-29T06:19:18.577Z,68.20
2019-05-29T06:21:47.790Z,68.90
2019-05-29T06:24:17.074Z,68.50
2019-05-29T06:26:46.357Z,69.10
2019-05-29T06:29:15.475Z,67.00
2019-05-29T06:31:44.665Z,65.80
2019-05-29T06:34:13.866Z,65.70
2019-05-29T06:36:43.945Z,65.50
2019-05-29T06:39:12.366Z,65.30
2019-05-29T06:41:42.055Z,65.60
2019-05-29T06:44:11.307Z,65.30
2019-05-29T06:46:42.447Z,64.20
2019-05-29T06:49:11.542Z,64.60
2019-05-29T06:51:41.359Z,64.80
2019-05-29T06:54:10.370Z,65.30
2019-05-29T06:56:41.826Z,65.70
2019-05-29T06:59:11.152Z,66.00
2019-05-29T07:01:41.707Z,66.60
2019-05-29T07:04:12.499Z,65.70
2019-05-29T07:06:42.746Z,65.30
2019-05-29T07:09:11.149Z,66.30
2019-05-29T07:11:41.314Z,66.40
2019-05-29T07:14:10.646Z,65.20
2019-05-29T07:16:49.560Z,64.80
2019-05-29T07:19:45.079Z,65.80
2019-05-29T07:21:42.696Z,65.80
2019-05-29T07:24:12.175Z,66.10
2019-05-29T07:26:41.270Z,65.70
2019-05-29T07:29:10.595Z,64.70
2019-05-29T07:31:40.724Z,63.80
2019-05-29T07:34:10.020Z,64.20
2019-05-29T07:36:39.915Z,63.30
2019-05-29T07:39:09.416Z,62.70
2019-05-29T07:41:39.589Z,62.60
2019-05-29T07:44:09.090Z,62.10
2019-05-29T07:46:38.327Z,62.30
2019-05-29T07:49:07.489Z,62.50
2019-05-29T07:51:38.029Z,61.90
2019-05-29T07:54:10.551Z,62.40
2019-05-29T07:56:40.375Z,61.00
2019-05-29T07:59:09.747Z,59.90
2019-05-29T08:01:39.081Z,59.50
2019-05-29T08:04:08.350Z,59.70
2019-05-29T08:06:37.475Z,59.50
2019-05-29T08:09:08.261Z,59.10
2019-05-29T08:11:37.480Z,59.60
2019-05-29T08:14:06.656Z,58.80
2019-05-29T08:16:35.877Z,58.90
2019-05-29T08:19:07.998Z,60.00
2019-05-29T08:21:36.013Z,58.80
2019-05-29T08:24:05.269Z,58.90
2019-05-29T08:26:34.487Z,59.00
2019-05-29T08:29:03.686Z,58.90
2019-05-29T08:31:32.867Z,58.00
2019-05-29T08:34:02.280Z,57.50
2019-05-29T08:36:31.433Z,57.80
2019-05-29T08:39:00.783Z,56.90
2019-05-29T08:41:29.968Z,56.70
2019-05-29T08:43:59.195Z,56.70
2019-05-29T08:46:28.529Z,56.40
2019-05-29T08:48:57.726Z,56.50
2019-05-29T08:51:26.876Z,56.10
2019-05-29T08:53:56.098Z,56.90
2019-05-29T08:56:25.427Z,57.30
2019-05-29T08:58:54.687Z,56.20
2019-05-29T09:01:24.142Z,54.60
2019-05-29T09:03:53.579Z,55.30
2019-05-29T09:06:23.191Z,55.80
2019-05-29T09:08:54.744Z,56.40
2019-05-29T09:11:23.590Z,56.80
2019-05-29T09:13:52.875Z,56.80
2019-05-29T09:16:22.179Z,56.30
2019-05-29T09:18:51.459Z,55.80
2019-05-29T09:21:20.674Z,55.70
2019-05-29T09:23:49.894Z,56.20
2019-05-29T09:26:22.427Z,56.30
2019-05-29T09:28:50.028Z,56.00
2019-05-29T09:31:20.307Z,55.20
2019-05-29T09:33:49.837Z,55.20
2019-05-29T09:36:20.537Z,55.70
2019-05-29T09:38:49.991Z,55.20
2019-05-29T09:41:19.195Z,54.60
2019-05-29T09:43:58.258Z,54.90
2019-05-29T09:46:20.142Z,56.60
2019-05-29T09:48:50.359Z,55.30
2019-05-29T09:51:21.784Z,53.70
2019-05-29T09:53:52.492Z,53.20
2019-05-29T09:56:22.153Z,53.40
2019-05-29T09:58:53.650Z,53.30
2019-05-29T10:01:24.779Z,52.30
2019-05-29T10:03:55.375Z,52.60
2019-05-29T10:06:24.667Z,52.30
2019-05-29T10:08:54.879Z,51.70
2019-05-29T10:11:24.703Z,52.10
2019-05-29T10:13:55.120Z,52.10
2019-05-29T10:16:25.484Z,52.50
2019-05-29T10:18:56.047Z,54.30
2019-05-29T10:21:39.104Z,52.70
2019-05-29T10:23:57.851Z,52.00
2019-05-29T10:26:34.640Z,52.80
2019-05-29T10:29:08.651Z,53.60
2019-05-29T10:31:34.877Z,52.70
2019-05-29T10:34:04.105Z,52.00
2019-05-29T10:36:33.658Z,51.60
2019-05-29T10:39:03.194Z,51.10
2019-05-29T10:41:32.346Z,50.20
2019-05-29T10:44:01.681Z,51.10
2019-05-29T10:46:30.848Z,50.30
2019-05-29T10:49:04.319Z,48.80
2019-05-29T10:51:30.843Z,48.70
2019-05-29T10:54:00.047Z,50.30
2019-05-29T10:56:29.577Z,50.00
2019-05-29T10:59:00.089Z,50.00
2019-05-29T11:01:29.623Z,49.80
2019-05-29T11:03:58.977Z,51.00
2019-05-29T11:06:28.530Z,50.80
2019-05-29T11:08:57.721Z,49.90
2019-05-29T11:11:27.026Z,50.40
2019-05-29T11:13:57.148Z,49.80
2019-05-29T11:16:26.582Z,50.40
2019-05-29T11:18:55.812Z,49.70
2019-05-29T11:21:25.661Z,49.70
2019-05-29T11:23:56.016Z,48.90
2019-05-29T11:26:25.749Z,48.60
2019-05-29T11:28:56.495Z,48.80
2019-05-29T11:31:26.050Z,49.40
2019-05-29T11:33:55.332Z,50.10
2019-05-29T11:36:24.685Z,48.90
2019-05-29T11:38:54.592Z,49.10
2019-05-29T11:41:26.943Z,49.20
2019-05-29T11:43:56.894Z,49.30
2019-05-29T11:46:26.459Z,49.50
2019-05-29T11:48:59.249Z,48.90
2019-05-29T11:51:28.794Z,48.80
2019-05-29T11:53:57.913Z,48.90
2019-05-29T11:56:27.190Z,49.20
2019-05-29T11:58:56.927Z,46.30
2019-05-29T12:01:25.453Z,47.60
2019-05-29T12:04:24.333Z,48.50
2019-05-29T12:06:25.556Z,46.60
2019-05-29T12:08:55.757Z,46.60
2019-05-29T12:11:25.113Z,48.40
2019-05-29T12:13:55.927Z,48.50
2019-05-29T12:16:25.734Z,48.00
2019-05-29T12:18:55.669Z,46.50
2019-05-29T12:21:23.952Z,46.90
2019-05-29T12:23:54.598Z,46.30
2019-05-29T12:26:24.155Z,46.80
2019-05-29T12:28:56.884Z,46.50
2019-05-29T12:31:24.461Z,45.80
2019-05-29T12:34:00.241Z,45.70
2019-05-29T12:36:31.309Z,45.90
2019-05-29T12:39:02.196Z,44.70
2019-05-29T12:41:31.312Z,44.90
2019-05-29T12:44:01.676Z,45.90
2019-05-29T12:46:31.044Z,44.70
2019-05-29T12:49:00.143Z,43.70
2019-05-29T12:51:29.317Z,44.40
2019-05-29T12:54:00.027Z,46.00
2019-05-29T12:56:29.355Z,43.20
2019-05-29T12:58:58.703Z,44.80
2019-05-29T13:01:27.866Z,45.00
2019-05-29T13:03:58.522Z,43.50
2019-05-29T13:06:27.952Z,44.00
2019-05-29T13:08:58.359Z,43.40
2019-05-29T13:11:27.723Z,44.50
2019-05-29T13:13:56.722Z,42.70
2019-05-29T13:16:26.294Z,42.60
2019-05-29T13:18:55.284Z,46.00
2019-05-29T13:21:24.498Z,45.10
2019-05-29T13:23:53.741Z,42.80
2019-05-29T13:26:24.436Z,42.00
2019-05-29T13:28:53.653Z,41.60
2019-05-29T13:31:22.950Z,42.10
2019-05-29T13:33:53.299Z,42.90
2019-05-29T13:36:23.169Z,41.80
2019-05-29T13:38:52.481Z,43.30
2019-05-29T13:41:22.040Z,41.70
2019-05-29T13:43:52.657Z,41.20
2019-05-29T13:46:21.973Z,42.20
2019-05-29T13:48:53.151Z,41.90
2019-05-29T13:51:22.761Z,41.80
2019-05-29T13:54:02.672Z,40.60
2019-05-29T13:56:24.385Z,40.60
2019-05-29T13:58:53.726Z,38.90
2019-05-29T14:01:25.252Z,39.00
2019-05-29T14:03:54.482Z,40.10
2019-05-29T14:06:23.587Z,40.10
2019-05-29T14:08:52.787Z,40.00
2019-05-29T14:11:21.872Z,41.00
2019-05-29T14:13:51.080Z,41.30
2019-05-29T14:16:21.584Z,40.30
2019-05-29T14:18:50.841Z,39.10
2019-05-29T14:21:19.998Z,38.90
2019-05-29T14:23:49.394Z,37.20
2019-05-29T14:26:18.631Z,37.20
2019-05-29T14:28:50.217Z,37.70
2019-05-29T14:31:19.190Z,38.60
2019-05-29T14:33:48.602Z,37.90
2019-05-29T14:36:17.768Z,38.30
2019-05-29T14:38:47.081Z,38.50
2019-05-29T14:41:16.283Z,38.40
2019-05-29T14:43:45.545Z,39.10
2019-05-29T14:46:15.843Z,40.10
2019-05-29T14:48:44.981Z,39.20
2019-05-29T14:51:14.317Z,40.30
2019-05-29T14:53:43.864Z,39.40
2019-05-29T14:56:13.375Z,40.20
2019-05-29T14:58:42.596Z,37.80
2019-05-29T15:01:13.237Z,38.10
2019-05-29T15:03:43.630Z,38.30
2019-05-29T15:06:13.977Z,38.90
2019-05-29T15:08:43.391Z,39.20
2019-05-29T15:11:14.038Z,38.30
2019-05-29T15:13:43.771Z,38.30
2019-05-29T15:16:14.987Z,39.40
2019-05-29T15:18:44.075Z,39.10
2019-05-29T15:21:13.221Z,41.10
2019-05-29T15:23:42.531Z,40.70
2019-05-29T15:26:11.812Z,38.30
2019-05-29T15:28:41.109Z,39.10
2019-05-29T15:31:10.485Z,39.00
2019-05-29T15:33:39.638Z,39.40
2019-05-29T15:36:09.009Z,40.00
2019-05-29T15:38:38.388Z,39.90
2019-05-29T15:41:08.687Z,38.50
2019-05-29T15:43:38.096Z,38.30
2019-05-29T15:46:09.570Z,38.90
2019-05-29T15:48:38.357Z,41.40
2019-05-29T15:51:08.718Z,38.50
2019-05-29T15:53:38.131Z,38.00
2019-05-29T15:56:20.177Z,41.20
2019-05-29T15:58:38.326Z,37.80
2019-05-29T16:01:09.693Z,39.20
2019-05-29T16:03:39.269Z,39.90
2019-05-29T16:06:09.626Z,40.20
2019-05-29T16:08:41.079Z,38.60
2019-05-29T16:11:10.636Z,37.20
2019-05-29T16:13:39.845Z,38.10
2019-05-29T16:16:09.487Z,38.30
2019-05-29T16:18:38.810Z,38.10
2019-05-29T16:21:08.176Z,39.10
2019-05-29T16:23:37.354Z,37.00
2019-05-29T16:26:06.583Z,36.50
2019-05-29T16:28:35.873Z,37.60
2019-05-29T16:31:05.166Z,38.70
2019-05-29T16:33:34.365Z,37.00
2019-05-29T16:36:03.709Z,37.10
2019-05-29T16:38:32.921Z,34.70
2019-05-29T16:41:02.215Z,35.80
2019-05-29T16:43:31.399Z,37.10
2019-05-29T16:46:00.619Z,39.60
2019-05-29T16:48:33.053Z,38.60
2019-05-29T16:51:02.422Z,38.10
2019-05-29T16:53:31.623Z,37.70
2019-05-29T16:56:00.813Z,38.80
2019-05-29T16:58:29.999Z,40.30
2019-05-29T17:01:02.055Z,37.80
2019-05-29T17:03:31.412Z,37.80
2019-05-29T17:06:00.573Z,36.90
2019-05-29T17:08:29.652Z,35.10
2019-05-29T17:10:58.759Z,37.00
2019-05-29T17:13:28.065Z,35.80
2019-05-29T17:15:57.076Z,35.60
2019-05-29T17:18:26.201Z,37.60
2019-05-29T17:20:55.446Z,36.80
2019-05-29T17:23:25.080Z,35.10
2019-05-29T17:26:09.733Z,35.00
2019-05-29T17:28:28.058Z,34.90
2019-05-29T17:30:56.157Z,35.80
2019-05-29T17:33:25.387Z,37.20
2019-05-29T17:35:54.494Z,34.30
2019-05-29T17:38:23.751Z,34.40
2019-05-29T17:40:52.944Z,36.00
2019-05-29T17:43:25.333Z,36.30
2019-05-29T17:45:53.247Z,35.80
2019-05-29T17:48:23.743Z,35.40
2019-05-29T17:50:54.110Z,36.40
2019-05-29T17:53:24.258Z,39.40
2019-05-29T17:55:53.566Z,39.50
2019-05-29T17:58:24.706Z,39.10
2019-05-29T18:00:54.115Z,38.40
2019-05-29T18:03:24.225Z,37.70
2019-05-29T18:05:53.961Z,38.90
2019-05-29T18:08:23.327Z,38.50
2019-05-29T18:10:52.732Z,37.60
2019-05-29T18:13:23.222Z,38.60
2019-05-29T18:15:52.803Z,39.70
2019-05-29T18:18:23.571Z,39.60
2019-05-29T18:20:52.932Z,41.10
2019-05-29T18:23:22.152Z,41.20
2019-05-29T18:25:51.485Z,42.40
2019-05-29T18:28:21.916Z,39.70
2019-05-29T18:30:51.380Z,40.00
2019-05-29T18:33:20.596Z,40.50
2019-05-29T18:35:49.963Z,39.90
2019-05-29T18:38:20.220Z,42.40
2019-05-29T18:40:49.471Z,40.90
2019-05-29T18:43:22.411Z,40.20
2019-05-29T18:45:51.959Z,41.00
2019-05-29T18:48:21.232Z,41.00
2019-05-29T18:50:52.181Z,42.30
2019-05-29T18:53:22.623Z,40.70
2019-05-29T18:55:51.855Z,39.60
2019-05-29T18:58:22.223Z,39.60
2019-05-29T19:00:51.653Z,39.80
2019-05-29T19:03:21.382Z,41.10
2019-05-29T19:05:50.556Z,40.50
2019-05-29T19:08:19.876Z,40.80
2019-05-29T19:10:49.090Z,41.90
2019-05-29T19:13:18.304Z,42.10
2019-05-29T19:15:47.632Z,41.00
2019-05-29T19:18:16.860Z,42.70
2019-05-29T19:20:46.172Z,42.10
2019-05-29T19:23:15.595Z,42.10
2019-05-29T19:25:45.004Z,42.60
2019-05-29T19:28:14.089Z,42.20
2019-05-29T19:30:43.319Z,43.20
2019-05-29T19:33:12.528Z,43.30
2019-05-29T19:35:41.709Z,43.70
2019-05-29T19:38:11.010Z,43.40
2019-05-29T19:40:40.281Z,44.60
2019-05-29T19:43:09.537Z,44.60
2019-05-29T19:45:40.887Z,45.30
2019-05-29T19:48:10.280Z,43.90
2019-05-29T19:50:39.432Z,44.70
2019-05-29T19:53:08.843Z,44.70
2019-05-29T19:55:38.429Z,44.80
2019-05-29T19:58:07.727Z,44.70
2019-05-29T20:00:37.096Z,45.50
2019-05-29T20:03:06.415Z,46.20
2019-05-29T20:05:37.854Z,45.90
2019-05-29T20:08:07.361Z,45.10
2019-05-29T20:10:37.584Z,45.40
2019-05-29T20:13:06.917Z,45.30
2019-05-29T20:15:36.178Z,47.20
2019-05-29T20:18:07.173Z,47.00
2019-05-29T20:20:36.552Z,46.00
2019-05-29T20:23:05.880Z,47.00
2019-05-29T20:25:35.256Z,48.00
2019-05-29T20:28:06.688Z,48.70
2019-05-29T20:30:36.387Z,47.20
2019-05-29T20:33:05.831Z,48.40
2019-05-29T20:35:35.159Z,48.40
2019-05-29T20:38:06.550Z,48.30
2019-05-29T20:40:35.501Z,48.00
2019-05-29T20:43:04.814Z,48.90
2019-05-29T20:45:35.483Z,49.90
2019-05-29T20:48:04.875Z,50.00
2019-05-29T20:50:34.879Z,48.70
2019-05-29T20:53:03.263Z,49.30
2019-05-29T20:55:33.293Z,49.80
2019-05-29T20:58:02.707Z,50.50
2019-05-29T21:00:31.990Z,51.30
2019-05-29T21:03:04.176Z,50.60
2019-05-29T21:05:34.516Z,51.00
2019-05-29T21:08:03.813Z,51.20
2019-05-29T21:10:33.103Z,51.70
2019-05-29T21:13:02.349Z,51.30
2019-05-29T21:15:31.639Z,51.30
2019-05-29T21:18:00.857Z,51.70
2019-05-29T21:20:30.289Z,52.10
2019-05-29T21:22:59.398Z,52.00
2019-05-29T21:25:28.781Z,52.00
2019-05-29T21:27:58.036Z,52.60
2019-05-29T21:30:27.372Z,54.20
2019-05-29T21:32:56.534Z,53.10
2019-05-29T21:35:25.735Z,52.90
2019-05-29T21:37:55.156Z,53.30
2019-05-29T21:40:24.444Z,54.40
2019-05-29T21:42:53.542Z,53.30
2019-05-29T21:45:22.794Z,53.40
2019-05-29T21:47:51.837Z,54.40
2019-05-29T21:50:21.034Z,54.60
2019-05-29T21:52:50.307Z,54.50
2019-05-29T21:55:21.131Z,55.20
2019-05-29T21:57:50.476Z,55.00
2019-05-29T22:00:35.524Z,54.50
2019-05-29T22:03:05.421Z,54.40
2019-05-29T22:05:34.722Z,54.60
2019-05-29T22:08:04.079Z,55.30
2019-05-29T22:10:33.246Z,54.90
2019-05-29T22:13:02.726Z,54.50
2019-05-29T22:15:32.124Z,54.80
2019-05-29T22:18:01.379Z,55.00
2019-05-29T22:20:30.570Z,55.50
2019-05-29T22:22:59.918Z,55.10
2019-05-29T22:25:29.226Z,55.20
2019-05-29T22:27:59.495Z,55.60
2019-05-29T22:30:28.808Z,55.90
2019-05-29T22:32:57.828Z,55.90
2019-05-29T22:35:27.304Z,55.60
2019-05-29T22:37:57.587Z,55.70
2019-05-29T22:40:26.909Z,56.20
2019-05-29T22:42:57.510Z,55.70
2019-05-29T22:45:26.969Z,56.50
2019-05-29T22:47:56.204Z,56.30
2019-05-29T22:50:25.616Z,56.90
2019-05-29T22:52:55.865Z,56.60
2019-05-29T22:55:25.100Z,57.20
2019-05-29T22:57:54.230Z,57.20
2019-05-29T23:00:24.972Z,57.20
2019-05-29T23:02:54.192Z,56.90
2019-05-29T23:05:23.558Z,57.40
2019-05-29T23:07:54.021Z,57.80
2019-05-29T23:10:23.243Z,58.30
2019-05-29T23:12:52.945Z,58.20
2019-05-29T23:15:22.587Z,58.80
2019-05-29T23:17:52.437Z,59.20
2019-05-29T23:20:21.867Z,59.20
2019-05-29T23:22:52.459Z,59.30
2019-05-29T23:25:21.959Z,59.30
2019-05-29T23:27:52.681Z,60.20
2019-05-29T23:30:22.042Z,60.00
2019-05-29T23:32:52.716Z,59.90
2019-05-29T23:35:23.627Z,60.60
2019-05-29T23:37:53.062Z,60.60
2019-05-29T23:40:23.936Z,61.20
2019-05-29T23:42:53.408Z,61.30
2019-05-29T23:45:22.620Z,62.00
2019-05-29T23:47:53.299Z,61.80
2019-05-29T23:50:22.910Z,62.20
2019-05-29T23:52:53.496Z,62.10
2019-05-29T23:55:22.844Z,62.50
2019-05-29T23:57:52.038Z,63.60
